Time;durP1;ratioP1;P1;durP2;ratioP2;P2;SDS_P1;SDS_P2;PMS_P1;PMS_P2;Temp;Humidity;BMP_temperature;BMP_pressure;BME280_temperature;BME280_humidity;BME280_pressure;Samples;Min_cycle;Max_cycle;Signal;HPM_P1;HPM_P2
2023/07/29 00:01:49;;;;;;;1.65;1.55;;;;;;;;;;5034165;28;20052;-77
2023/07/29 00:04:16;;;;;;;1.50;1.45;;;;;;;;;;5036808;28;20044;-78
2023/07/29 00:06:44;;;;;;;1.65;1.60;;;;;;;;;;5038509;28;20056;-78
2023/07/29 00:09:12;;;;;;;2.30;1.48;;;;;;;;;;5044307;28;20049;-78
2023/07/29 00:11:39;;;;;;;1.95;1.85;;;;;;;;;;5033416;28;20061;-78
2023/07/29 00:14:07;;;;;;;2.35;1.50;;;;;;;;;;5041132;28;20050;-78
2023/07/29 00:16:34;;;;;;;3.38;1.60;;;;;;;;;;5035548;28;20387;-78
2023/07/29 00:19:03;;;;;;;1.30;1.30;;;;;;;;;;5037391;28;20053;-78
2023/07/29 00:21:31;;;;;;;1.42;1.33;;;;;;;;;;5038388;28;20183;-78
2023/07/29 00:23:58;;;;;;;2.60;1.42;;;;;;;;;;5022892;28;20049;-77
2023/07/29 00:26:28;;;;;;;1.20;1.10;;;;;;;;;;5040265;28;20037;-78
2023/07/29 00:28:56;;;;;;;1.60;1.50;;;;;;;;;;5029093;28;20293;-78
2023/07/29 00:31:24;;;;;;;1.25;1.23;;;;;;;;;;5032685;28;20107;-78
2023/07/29 00:33:52;;;;;;;1.02;1.02;;;;;;;;;;5028116;28;20064;-77
2023/07/29 00:36:20;;;;;;;1.50;1.40;;;;;;;;;;5009793;28;20046;-78
2023/07/29 00:38:47;;;;;;;1.20;1.20;;;;;;;;;;5027305;28;21445;-78
2023/07/29 00:41:16;;;;;;;1.27;1.17;;;;;;;;;;5022556;28;20048;-77
2023/07/29 00:43:43;;;;;;;1.45;1.45;;;;;;;;;;5010442;28;20356;-77
2023/07/29 00:46:12;;;;;;;1.52;1.42;;;;;;;;;;5023171;28;20111;-78
2023/07/29 00:48:40;;;;;;;1.38;1.27;;;;;;;;;;4999525;28;20076;-78
2023/07/29 00:51:08;;;;;;;1.33;1.27;;;;;;;;;;5004436;28;20053;-77
2023/07/29 00:53:35;;;;;;;1.00;1.00;;;;;;;;;;5042305;28;20042;-78
2023/07/29 00:56:02;;;;;;;1.63;1.10;;;;;;;;;;5022069;28;20164;-78
2023/07/29 00:58:30;;;;;;;1.20;1.20;;;;;;;;;;5008824;28;20046;-77
2023/07/29 01:00:58;;;;;;;1.30;1.20;;;;;;;;;;5025486;28;20151;-77
2023/07/29 01:03:26;;;;;;;1.30;1.20;;;;;;;;;;5041623;28;20057;-77
2023/07/29 01:05:57;;;;;;;0.95;0.95;;;;;;;;;;5002874;28;20045;-78
2023/07/29 01:08:31;;;;;;;1.30;1.20;;;;;;;;;;5028500;28;20045;-78
2023/07/29 01:11:04;;;;;;;1.33;1.27;;;;;;;;;;5009524;28;20042;-78
2023/07/29 01:13:34;;;;;;;1.27;1.10;;;;;;;;;;5025446;28;20045;-78
2023/07/29 01:16:06;;;;;;;1.15;1.15;;;;;;;;;;5004173;28;20598;-78
2023/07/29 01:18:36;;;;;;;0.95;0.95;;;;;;;;;;5002013;28;20538;-78
2023/07/29 01:21:04;;;;;;;1.40;1.30;;;;;;;;;;5042136;28;20053;-77
2023/07/29 01:23:33;;;;;;;1.10;1.10;;;;;;;;;;5006578;28;20743;-77
2023/07/29 01:26:01;;;;;;;1.20;1.10;;;;;;;;;;5007152;28;20068;-78
2023/07/29 01:28:28;;;;;;;1.02;1.02;;;;;;;;;;5000802;28;20045;-78
2023/07/29 01:31:22;;;;;;;1.10;1.10;;;;;;;;;;5008231;28;20049;-78
2023/07/29 01:33:56;;;;;;;1.27;1.20;;;;;;;;;;5003109;28;20059;-77
2023/07/29 01:36:26;;;;;;;1.20;1.10;;;;;;;;;;5023468;28;20053;-77
2023/07/29 01:38:55;;;;;;;1.58;1.23;;;;;;;;;;5027072;28;20060;-78
2023/07/29 01:41:23;;;;;;;1.02;1.02;;;;;;;;;;5040929;28;20077;-78
2023/07/29 01:43:51;;;;;;;1.77;1.30;;;;;;;;;;5006597;28;20057;-78
2023/07/29 01:46:18;;;;;;;1.23;1.23;;;;;;;;;;5007765;28;20419;-77
2023/07/29 01:48:47;;;;;;;1.23;1.20;;;;;;;;;;5004531;28;20056;-77
2023/07/29 01:51:15;;;;;;;1.52;1.17;;;;;;;;;;5025875;28;20057;-78
2023/07/29 01:53:42;;;;;;;1.50;1.40;;;;;;;;;;5005201;28;20043;-78
2023/07/29 01:56:10;;;;;;;1.20;1.20;;;;;;;;;;5020296;28;20529;-77
2023/07/29 01:58:41;;;;;;;2.28;1.20;;;;;;;;;;5003780;28;20124;-78
2023/07/29 02:01:08;;;;;;;1.40;1.40;;;;;;;;;;5038824;28;20057;-78
2023/07/29 02:03:36;;;;;;;1.98;1.27;;;;;;;;;;5004085;28;20046;-77
2023/07/29 02:06:03;;;;;;;1.58;1.20;;;;;;;;;;5002965;28;20132;-77
2023/07/29 02:08:31;;;;;;;1.13;1.13;;;;;;;;;;5001431;28;20412;-77
2023/07/29 02:10:58;;;;;;;1.20;1.20;;;;;;;;;;5006784;28;20045;-78
2023/07/29 02:13:26;;;;;;;1.40;1.30;;;;;;;;;;5001076;28;20062;-78
2023/07/29 02:15:54;;;;;;;1.42;1.30;;;;;;;;;;5036085;28;20227;-78
2023/07/29 02:18:21;;;;;;;3.55;1.42;;;;;;;;;;5019668;28;20095;-78
2023/07/29 02:20:49;;;;;;;1.45;1.35;;;;;;;;;;5006190;28;20045;-78
2023/07/29 02:23:17;;;;;;;1.38;1.27;;;;;;;;;;5007596;28;20045;-78
2023/07/29 02:25:45;;;;;;;1.63;1.50;;;;;;;;;;5024094;28;20050;-78
2023/07/29 02:28:12;;;;;;;2.95;1.63;;;;;;;;;;5025257;28;20049;-78
2023/07/29 02:30:41;;;;;;;1.67;1.30;;;;;;;;;;5017392;28;20144;-78
2023/07/29 02:33:09;;;;;;;1.55;1.45;;;;;;;;;;5005437;28;20046;-77
2023/07/29 02:35:36;;;;;;;1.40;1.30;;;;;;;;;;5035244;28;20045;-78
2023/07/29 02:38:04;;;;;;;1.70;1.48;;;;;;;;;;5007116;28;20100;-77
2023/07/29 02:40:32;;;;;;;1.80;1.42;;;;;;;;;;5006523;28;20041;-78
2023/07/29 02:42:59;;;;;;;2.90;1.45;;;;;;;;;;5003147;28;20497;-78
2023/07/29 02:45:26;;;;;;;1.52;1.33;;;;;;;;;;5037552;28;20048;-77
2023/07/29 02:47:54;;;;;;;3.45;1.55;;;;;;;;;;5000909;28;20041;-77
2023/07/29 02:50:22;;;;;;;1.60;1.50;;;;;;;;;;5019528;28;20085;-77
2023/07/29 02:52:49;;;;;;;2.65;1.42;;;;;;;;;;5026153;28;20520;-77
2023/07/29 02:55:18;;;;;;;2.30;1.30;;;;;;;;;;5029484;28;20412;-78
2023/07/29 02:57:45;;;;;;;1.38;1.27;;;;;;;;;;5006837;28;20061;-77
2023/07/29 03:00:13;;;;;;;2.47;1.42;;;;;;;;;;5017789;28;20056;-78
2023/07/29 03:02:40;;;;;;;1.60;1.50;;;;;;;;;;5020015;28;20561;-79
2023/07/29 03:05:08;;;;;;;1.50;1.40;;;;;;;;;;5006526;28;20499;-77
2023/07/29 03:07:36;;;;;;;1.50;1.40;;;;;;;;;;4998760;28;20549;-77
2023/07/29 03:10:05;;;;;;;4.40;1.90;;;;;;;;;;5039117;28;20400;-78
2023/07/29 03:12:32;;;;;;;2.90;2.70;;;;;;;;;;5021479;28;20061;-77
2023/07/29 03:15:01;;;;;;;2.35;2.10;;;;;;;;;;5034040;28;20060;-78
2023/07/29 03:17:29;;;;;;;1.75;1.65;;;;;;;;;;5002398;28;20076;-77
2023/07/29 03:19:57;;;;;;;1.67;1.58;;;;;;;;;;5022807;28;20425;-77
2023/07/29 03:22:24;;;;;;;1.38;1.35;;;;;;;;;;5004075;28;20054;-77
2023/07/29 03:24:52;;;;;;;1.90;1.52;;;;;;;;;;5041949;28;20065;-78
2023/07/29 03:27:19;;;;;;;1.40;1.40;;;;;;;;;;5021697;28;20100;-78
2023/07/29 03:29:47;;;;;;;2.10;1.90;;;;;;;;;;5024391;28;20038;-77
2023/07/29 03:32:14;;;;;;;1.92;1.70;;;;;;;;;;5040928;28;20077;-78
2023/07/29 03:34:42;;;;;;;1.65;1.55;;;;;;;;;;5004150;28;20040;-78
2023/07/29 03:37:10;;;;;;;1.95;1.85;;;;;;;;;;5007017;28;20663;-78
2023/07/29 03:39:37;;;;;;;1.90;1.60;;;;;;;;;;5025629;28;20077;-77
2023/07/29 03:42:05;;;;;;;2.25;1.70;;;;;;;;;;5020781;28;20132;-78
2023/07/29 03:44:33;;;;;;;1.75;1.65;;;;;;;;;;5055009;23;20054;-85
2023/07/29 03:47:01;;;;;;;1.95;1.52;;;;;;;;;;5054342;28;20549;-86
2023/07/29 03:49:28;;;;;;;2.28;1.70;;;;;;;;;;5048606;28;20143;-85
2023/07/29 03:51:56;;;;;;;3.10;1.70;;;;;;;;;;5056002;28;20046;-87
2023/07/29 03:54:24;;;;;;;1.80;1.70;;;;;;;;;;5070480;28;20040;-87
2023/07/29 03:56:51;;;;;;;3.60;2.08;;;;;;;;;;5071027;28;20558;-87
2023/07/29 03:59:18;;;;;;;2.33;1.60;;;;;;;;;;5071176;28;20446;-87
2023/07/29 04:01:46;;;;;;;2.15;1.65;;;;;;;;;;5052449;28;20129;-87
2023/07/29 04:04:13;;;;;;;1.88;1.77;;;;;;;;;;5033345;28;20557;-86
2023/07/29 04:06:41;;;;;;;1.77;1.70;;;;;;;;;;5053085;28;20036;-87
2023/07/29 04:09:09;;;;;;;1.83;1.73;;;;;;;;;;5052335;28;20040;-87
2023/07/29 04:11:36;;;;;;;1.67;1.58;;;;;;;;;;5072102;28;20120;-86
2023/07/29 04:14:03;;;;;;;1.70;1.60;;;;;;;;;;5037340;28;20067;-87
2023/07/29 04:16:31;;;;;;;1.75;1.50;;;;;;;;;;5051151;28;20044;-87
2023/07/29 04:18:58;;;;;;;2.08;1.88;;;;;;;;;;5054024;28;20055;-86
2023/07/29 04:21:25;;;;;;;2.45;1.73;;;;;;;;;;5053735;28;20045;-87
2023/07/29 04:23:53;;;;;;;1.70;1.60;;;;;;;;;;5052691;28;20127;-86
2023/07/29 04:26:21;;;;;;;1.58;1.50;;;;;;;;;;5053081;28;20474;-87
2023/07/29 04:28:48;;;;;;;2.28;1.60;;;;;;;;;;5052463;28;20452;-87
2023/07/29 04:31:15;;;;;;;3.25;1.95;;;;;;;;;;5053417;28;20048;-87
2023/07/29 04:33:43;;;;;;;4.28;1.90;;;;;;;;;;5052941;28;20094;-87
2023/07/29 04:36:11;;;;;;;2.22;2.00;;;;;;;;;;5071603;28;20051;-87
2023/07/29 04:38:38;;;;;;;1.80;1.70;;;;;;;;;;5067868;28;20044;-87
2023/07/29 04:41:07;;;;;;;4.78;1.85;;;;;;;;;;5071472;28;20571;-87
2023/07/29 04:43:34;;;;;;;2.00;1.90;;;;;;;;;;5053517;28;20056;-87
2023/07/29 04:46:02;;;;;;;2.75;1.83;;;;;;;;;;5053870;28;20119;-87
2023/07/29 04:48:30;;;;;;;1.95;1.80;;;;;;;;;;5067718;28;20120;-85
2023/07/29 04:50:58;;;;;;;2.03;1.77;;;;;;;;;;5076473;28;20045;-85
2023/07/29 04:53:25;;;;;;;2.45;1.88;;;;;;;;;;5088511;28;20048;-86
2023/07/29 04:55:55;;;;;;;1.83;1.73;;;;;;;;;;5065206;28;20044;-86
2023/07/29 04:58:25;;;;;;;1.80;1.70;;;;;;;;;;5072119;28;20054;-87
2023/07/29 05:00:53;;;;;;;2.70;1.70;;;;;;;;;;5067456;28;20053;-87
2023/07/29 05:03:21;;;;;;;4.43;1.58;;;;;;;;;;5063586;28;20063;-86
2023/07/29 05:05:48;;;;;;;1.77;1.67;;;;;;;;;;5064057;28;20044;-85
2023/07/29 05:08:18;;;;;;;1.90;1.80;;;;;;;;;;5051463;28;20052;-87
2023/07/29 05:10:49;;;;;;;2.08;1.75;;;;;;;;;;5052090;28;20056;-87
2023/07/29 05:13:17;;;;;;;;;;;;;;;;;;5072550;28;20041;-87
2023/07/29 05:15:44;;;;;;;1.83;1.73;;;;;;;;;;5052551;28;20016;-88
2023/07/29 05:18:12;;;;;;;1.95;1.80;;;;;;;;;;5051526;28;20051;-87
2023/07/29 05:20:39;;;;;;;4.07;1.58;;;;;;;;;;5067055;28;20136;-86
2023/07/29 05:23:06;;;;;;;1.80;1.70;;;;;;;;;;5050283;28;20680;-87
2023/07/29 05:25:37;;;;;;;2.10;1.92;;;;;;;;;;5051313;28;20464;-87
2023/07/29 05:28:07;;;;;;;1.70;1.70;;;;;;;;;;5067366;28;20078;-85
2023/07/29 05:30:37;;;;;;;2.00;1.90;;;;;;;;;;5054303;28;20098;-87
2023/07/29 05:33:09;;;;;;;1.97;1.87;;;;;;;;;;5050317;28;20037;-88
2023/07/29 05:35:38;;;;;;;1.80;1.70;;;;;;;;;;5050397;28;20092;-86
2023/07/29 05:38:08;;;;;;;2.38;1.90;;;;;;;;;;5050273;28;20045;-87
2023/07/29 05:40:35;;;;;;;1.80;1.70;;;;;;;;;;5052272;28;20505;-87
2023/07/29 05:43:03;;;;;;;1.90;1.80;;;;;;;;;;5069557;28;20049;-87
2023/07/29 05:45:41;;;;;;;1.67;1.58;;;;;;;;;;5051721;28;20039;-87
2023/07/29 05:48:08;;;;;;;1.80;1.70;;;;;;;;;;5002718;28;20050;-75
2023/07/29 05:50:36;;;;;;;1.70;1.60;;;;;;;;;;4991804;28;20077;-74
2023/07/29 05:53:03;;;;;;;2.38;2.17;;;;;;;;;;5004578;28;20483;-74
2023/07/29 05:55:31;;;;;;;1.92;1.83;;;;;;;;;;5010874;28;20549;-74
2023/07/29 05:57:58;;;;;;;2.13;2.03;;;;;;;;;;5004839;28;20505;-73
2023/07/29 06:00:26;;;;;;;1.55;1.48;;;;;;;;;;5008122;28;20517;-74
2023/07/29 06:02:53;;;;;;;2.10;1.88;;;;;;;;;;5026486;28;20136;-74
2023/07/29 06:05:22;;;;;;;2.25;2.05;;;;;;;;;;5001191;28;20092;-74
2023/07/29 06:07:50;;;;;;;2.25;1.90;;;;;;;;;;5025218;28;20877;-75
2023/07/29 06:10:18;;;;;;;1.88;1.77;;;;;;;;;;5005611;28;20372;-76
2023/07/29 06:12:47;;;;;;;2.10;1.70;;;;;;;;;;5026680;28;20542;-73
2023/07/29 06:15:15;;;;;;;2.55;2.00;;;;;;;;;;5021772;28;20584;-72
2023/07/29 06:17:42;;;;;;;2.05;1.77;;;;;;;;;;5024372;28;20580;-75
2023/07/29 06:20:10;;;;;;;1.83;1.73;;;;;;;;;;5024677;28;20083;-76
2023/07/29 06:22:37;;;;;;;2.55;1.80;;;;;;;;;;5024313;28;20053;-73
2023/07/29 06:25:08;;;;;;;2.08;1.70;;;;;;;;;;5023907;28;20503;-76
2023/07/29 06:27:35;;;;;;;1.80;1.70;;;;;;;;;;5024938;28;20054;-73
2023/07/29 06:30:03;;;;;;;1.52;1.42;;;;;;;;;;5019421;28;20095;-74
2023/07/29 06:32:30;;;;;;;2.08;1.65;;;;;;;;;;5024867;28;20046;-75
2023/07/29 06:34:58;;;;;;;1.70;1.60;;;;;;;;;;5024448;28;20045;-73
2023/07/29 06:37:25;;;;;;;1.80;1.70;;;;;;;;;;5008551;28;20056;-73
2023/07/29 06:39:53;;;;;;;1.73;1.63;;;;;;;;;;5007815;28;20049;-73
2023/07/29 06:42:20;;;;;;;1.73;1.60;;;;;;;;;;5025962;28;20103;-73
2023/07/29 06:44:48;;;;;;;2.00;1.90;;;;;;;;;;5025970;28;20148;-74
2023/07/29 06:47:15;;;;;;;1.65;1.55;;;;;;;;;;5024646;28;20049;-75
2023/07/29 06:49:42;;;;;;;1.83;1.67;;;;;;;;;;5023952;28;20806;-75
2023/07/29 06:52:10;;;;;;;1.60;1.50;;;;;;;;;;5025848;28;20045;-72
2023/07/29 06:54:37;;;;;;;1.85;1.75;;;;;;;;;;5024395;28;20134;-75
2023/07/29 06:57:05;;;;;;;1.52;1.42;;;;;;;;;;5026358;28;20135;-73
2023/07/29 06:59:32;;;;;;;1.40;1.40;;;;;;;;;;5026141;28;20053;-73
2023/07/29 07:02:00;;;;;;;2.97;1.42;;;;;;;;;;5025054;28;20104;-76
2023/07/29 07:04:27;;;;;;;1.33;1.33;;;;;;;;;;5026009;28;20052;-75
2023/07/29 07:06:55;;;;;;;1.45;1.35;;;;;;;;;;5025280;28;20053;-73
2023/07/29 07:09:22;;;;;;;1.65;1.55;;;;;;;;;;5025907;28;20049;-73
2023/07/29 07:11:50;;;;;;;1.40;1.30;;;;;;;;;;5024739;28;20037;-75
2023/07/29 07:14:17;;;;;;;3.83;1.63;;;;;;;;;;5024313;28;22592;-73
2023/07/29 07:16:45;;;;;;;2.88;1.40;;;;;;;;;;5025892;28;20045;-73
2023/07/29 07:19:12;;;;;;;1.75;1.65;;;;;;;;;;5025470;28;20053;-77
2023/07/29 07:21:40;;;;;;;1.38;1.38;;;;;;;;;;5025037;28;20072;-73
2023/07/29 07:24:07;;;;;;;3.83;1.70;;;;;;;;;;5024460;28;20049;-73
2023/07/29 07:26:35;;;;;;;1.50;1.40;;;;;;;;;;5025310;28;20056;-73
2023/07/29 07:29:03;;;;;;;2.08;1.60;;;;;;;;;;5029110;28;20049;-75
2023/07/29 07:31:33;;;;;;;1.77;1.67;;;;;;;;;;5029387;28;20042;-74
2023/07/29 07:34:02;;;;;;;1.60;1.50;;;;;;;;;;5023472;28;20056;-73
2023/07/29 07:36:30;;;;;;;1.58;1.48;;;;;;;;;;5029060;28;20121;-73
2023/07/29 07:38:58;;;;;;;1.67;1.42;;;;;;;;;;5027804;28;20168;-74
2023/07/29 07:41:25;;;;;;;1.45;1.30;;;;;;;;;;5028206;28;20042;-75
2023/07/29 07:43:53;;;;;;;1.50;1.50;;;;;;;;;;5029342;28;20048;-75
2023/07/29 07:46:20;;;;;;;1.48;1.38;;;;;;;;;;5029726;28;20045;-73
2023/07/29 07:48:48;;;;;;;1.40;1.30;;;;;;;;;;5025465;28;20053;-73
2023/07/29 07:51:15;;;;;;;1.40;1.35;;;;;;;;;;5028815;28;20077;-74
2023/07/29 07:53:43;;;;;;;2.35;1.20;;;;;;;;;;5028587;28;20053;-73
2023/07/29 07:56:10;;;;;;;1.10;1.10;;;;;;;;;;5021452;28;20123;-75
2023/07/29 07:58:38;;;;;;;1.50;1.40;;;;;;;;;;5024498;28;20049;-74
2023/07/29 08:01:06;;;;;;;1.17;1.17;;;;;;;;;;5022220;28;20520;-74
2023/07/29 08:03:34;;;;;;;1.10;1.10;;;;;;;;;;5025024;28;20053;-73
2023/07/29 08:06:03;;;;;;;1.30;1.20;;;;;;;;;;5023694;28;20073;-73
2023/07/29 08:08:30;;;;;;;1.20;1.20;;;;;;;;;;5022165;28;20049;-74
2023/07/29 08:10:58;;;;;;;1.30;1.20;;;;;;;;;;5027105;28;20073;-75
2023/07/29 08:13:26;;;;;;;1.20;1.10;;;;;;;;;;5026824;28;20462;-75
2023/07/29 08:15:55;;;;;;;2.63;1.10;;;;;;;;;;5026829;28;20044;-73
2023/07/29 08:18:23;;;;;;;1.40;1.30;;;;;;;;;;5027581;28;20083;-73
2023/07/29 08:21:03;;;;;;;1.02;1.02;;;;;;;;;;5029062;28;20050;-73
2023/07/29 08:23:32;;;;;;;1.10;0.90;;;;;;;;;;5021514;28;20045;-73
2023/07/29 08:26:02;;;;;;;1.15;1.15;;;;;;;;;;5025863;28;20404;-75
2023/07/29 08:28:31;;;;;;;0.95;0.95;;;;;;;;;;5021356;28;20095;-73
2023/07/29 08:30:59;;;;;;;1.10;1.10;;;;;;;;;;5024575;28;20049;-76
2023/07/29 08:33:26;;;;;;;1.17;1.00;;;;;;;;;;5025220;28;20148;-74
2023/07/29 08:35:54;;;;;;;1.30;1.20;;;;;;;;;;5026426;28;20317;-73
2023/07/29 08:38:22;;;;;;;1.20;1.10;;;;;;;;;;5024710;28;20038;-74
2023/07/29 08:40:51;;;;;;;0.90;0.90;;;;;;;;;;5022761;28;20064;-76
2023/07/29 08:43:23;;;;;;;1.10;1.10;;;;;;;;;;5024803;28;20103;-74
2023/07/29 08:45:51;;;;;;;0.93;0.90;;;;;;;;;;5026707;28;20448;-74
2023/07/29 08:48:24;;;;;;;1.38;1.00;;;;;;;;;;5025617;28;20037;-77
2023/07/29 08:50:53;;;;;;;1.17;1.08;;;;;;;;;;5022410;28;20487;-74
2023/07/29 08:53:20;;;;;;;1.08;1.08;;;;;;;;;;5025833;28;20056;-76
2023/07/29 08:55:48;;;;;;;1.67;1.00;;;;;;;;;;5007197;28;20509;-74
2023/07/29 08:58:16;;;;;;;2.50;1.20;;;;;;;;;;5008665;28;20049;-74
2023/07/29 09:00:44;;;;;;;1.40;1.30;;;;;;;;;;5024362;28;20057;-76
2023/07/29 09:03:12;;;;;;;6.80;1.20;;;;;;;;;;5007604;28;20561;-76
2023/07/29 09:05:40;;;;;;;9.38;1.85;;;;;;;;;;5025648;28;20058;-75
2023/07/29 09:08:10;;;;;;;26.50;2.97;;;;;;;;;;5016019;28;20048;-76
2023/07/29 09:10:38;;;;;;;6.53;2.90;;;;;;;;;;5026946;28;20469;-76
2023/07/29 09:13:06;;;;;;;4.38;2.05;;;;;;;;;;5026124;28;20053;-74
2023/07/29 09:15:35;;;;;;;10.20;2.30;;;;;;;;;;5025773;28;20045;-75
2023/07/29 09:18:13;;;;;;;5.60;2.00;;;;;;;;;;5021388;28;20049;-75
2023/07/29 09:20:41;;;;;;;4.22;2.17;;;;;;;;;;5021965;28;20049;-75
2023/07/29 09:23:12;;;;;;;5.68;2.10;;;;;;;;;;5018700;28;20057;-77
2023/07/29 09:25:40;;;;;;;3.17;2.03;;;;;;;;;;5019476;28;20128;-77
2023/07/29 09:28:09;;;;;;;2.03;1.90;;;;;;;;;;5028286;28;20052;-80
2023/07/29 09:30:36;;;;;;;4.60;2.28;;;;;;;;;;5021658;28;20124;-79
2023/07/29 09:33:04;;;;;;;5.22;2.20;;;;;;;;;;5027829;28;20045;-80
2023/07/29 09:35:33;;;;;;;3.08;2.13;;;;;;;;;;5020613;28;20037;-75
2023/07/29 09:38:01;;;;;;;2.63;2.40;;;;;;;;;;5024953;28;20049;-76
2023/07/29 09:40:34;;;;;;;3.97;2.20;;;;;;;;;;5024666;28;20056;-76
2023/07/29 09:43:01;;;;;;;5.53;2.33;;;;;;;;;;5023784;28;20057;-76
2023/07/29 09:45:29;;;;;;;13.40;2.90;;;;;;;;;;5075220;22;20158;-78
2023/07/29 09:47:58;;;;;;;3.53;2.38;;;;;;;;;;5017611;28;20053;-77
2023/07/29 09:50:26;;;;;;;4.03;2.13;;;;;;;;;;5032976;28;20426;-77
2023/07/29 09:52:55;;;;;;;5.97;2.63;;;;;;;;;;5037930;28;20069;-78
2023/07/29 09:55:23;;;;;;;4.68;2.83;;;;;;;;;;5038179;28;20068;-77
2023/07/29 09:58:01;;;;;;;4.55;2.95;;;;;;;;;;5018086;28;20127;-77
2023/07/29 10:00:29;;;;;;;2.88;2.40;;;;;;;;;;5039558;28;20068;-78
2023/07/29 10:02:57;;;;;;;3.70;2.75;;;;;;;;;;5038552;28;20052;-79
2023/07/29 10:05:28;;;;;;;4.07;2.28;;;;;;;;;;5035940;28;20514;-77
2023/07/29 10:07:57;;;;;;;2.85;2.40;;;;;;;;;;5041937;28;20052;-77
2023/07/29 10:10:26;;;;;;;1.50;1.40;;;;;;;;;;5054370;28;20041;-78
2023/07/29 10:12:55;;;;;;;2.85;1.83;;;;;;;;;;5036793;28;20076;-77
2023/07/29 10:15:22;;;;;;;3.42;1.85;;;;;;;;;;5032018;28;20040;-77
2023/07/29 10:17:50;;;;;;;3.30;1.92;;;;;;;;;;5032468;28;20122;-77
2023/07/29 10:20:18;;;;;;;2.83;1.75;;;;;;;;;;5035872;28;20403;-78
2023/07/29 10:22:47;;;;;;;2.60;1.90;;;;;;;;;;5027436;28;20053;-76
2023/07/29 10:25:18;;;;;;;2.20;2.03;;;;;;;;;;5035622;28;20052;-77
2023/07/29 10:28:03;;;;;;;2.72;1.98;;;;;;;;;;5032236;28;20142;-77
2023/07/29 10:30:31;;;;;;;1.85;1.70;;;;;;;;;;5039700;28;20041;-77
2023/07/29 10:32:59;;;;;;;2.55;1.98;;;;;;;;;;5037932;28;20046;-77
2023/07/29 10:35:27;;;;;;;2.58;2.20;;;;;;;;;;5025439;28;20056;-78
2023/07/29 10:37:55;;;;;;;2.05;1.85;;;;;;;;;;5029926;28;20129;-77
2023/07/29 10:40:22;;;;;;;2.80;1.90;;;;;;;;;;5008370;28;20045;-77
2023/07/29 10:43:03;;;;;;;1.95;1.85;;;;;;;;;;5018517;28;20111;-77
2023/07/29 10:45:37;;;;;;;1.80;1.70;;;;;;;;;;5029103;28;20049;-77
2023/07/29 10:48:11;;;;;;;2.25;2.15;;;;;;;;;;5031559;28;20100;-77
2023/07/29 10:50:38;;;;;;;3.25;2.28;;;;;;;;;;5027678;28;20442;-77
2023/07/29 10:53:06;;;;;;;3.95;2.55;;;;;;;;;;5034300;28;20053;-76
2023/07/29 10:55:36;;;;;;;2.63;2.13;;;;;;;;;;5034489;28;20657;-76
2023/07/29 10:58:07;;;;;;;3.95;2.33;;;;;;;;;;5037197;28;20080;-77
2023/07/29 11:00:35;;;;;;;2.22;2.13;;;;;;;;;;5019474;28;20060;-77
2023/07/29 11:03:05;;;;;;;2.53;2.33;;;;;;;;;;5029600;28;20159;-78
2023/07/29 11:05:50;;;;;;;3.28;2.70;;;;;;;;;;5033905;28;20049;-77
2023/07/29 11:08:19;;;;;;;2.63;2.42;;;;;;;;;;5036307;28;20071;-77
2023/07/29 11:11:12;;;;;;;3.70;2.40;;;;;;;;;;5026262;28;20038;-78
2023/07/29 11:13:40;;;;;;;2.10;2.00;;;;;;;;;;5032627;28;20038;-76
2023/07/29 11:16:07;;;;;;;3.15;2.00;;;;;;;;;;5033790;28;20555;-80
2023/07/29 11:18:35;;;;;;;2.10;2.00;;;;;;;;;;5031462;28;20084;-79
2023/07/29 11:21:03;;;;;;;4.10;1.90;;;;;;;;;;5015465;28;20061;-77
2023/07/29 11:23:34;;;;;;;1.92;1.83;;;;;;;;;;5028380;28;20054;-78
2023/07/29 11:26:02;;;;;;;2.75;1.90;;;;;;;;;;5029931;28;20064;-80
2023/07/29 11:28:30;;;;;;;2.00;1.90;;;;;;;;;;5034968;28;20053;-78
2023/07/29 11:30:59;;;;;;;1.88;1.77;;;;;;;;;;5021514;28;20049;-78
2023/07/29 11:33:28;;;;;;;1.80;1.70;;;;;;;;;;5027508;28;20081;-79
2023/07/29 11:35:56;;;;;;;1.70;1.60;;;;;;;;;;5025086;28;20060;-78
2023/07/29 11:38:26;;;;;;;2.47;1.80;;;;;;;;;;5029138;28;20813;-78
2023/07/29 11:40:59;;;;;;;1.88;1.58;;;;;;;;;;5038358;28;20050;-78
2023/07/29 11:43:27;;;;;;;1.98;1.88;;;;;;;;;;5040353;28;20064;-78
2023/07/29 11:45:54;;;;;;;5.20;1.70;;;;;;;;;;5044850;28;20041;-79
2023/07/29 11:48:27;;;;;;;1.90;1.80;;;;;;;;;;5040432;28;20059;-78
2023/07/29 11:50:57;;;;;;;1.50;1.40;;;;;;;;;;5035960;28;20049;-79
2023/07/29 11:53:31;;;;;;;1.75;1.65;;;;;;;;;;5040825;28;20061;-80
2023/07/29 11:55:59;;;;;;;1.42;1.38;;;;;;;;;;5033985;28;20037;-79
2023/07/29 11:58:27;;;;;;;1.50;1.40;;;;;;;;;;5045648;28;20042;-80
2023/07/29 12:00:54;;;;;;;1.30;1.30;;;;;;;;;;5044691;28;20087;-78
2023/07/29 12:03:22;;;;;;;1.50;1.40;;;;;;;;;;5043594;28;20411;-79
2023/07/29 12:05:50;;;;;;;2.13;1.30;;;;;;;;;;5042856;28;20461;-79
2023/07/29 12:08:18;;;;;;;2.28;2.17;;;;;;;;;;5047470;28;20083;-78
2023/07/29 12:10:45;;;;;;;2.67;1.45;;;;;;;;;;5027386;28;20048;-78
2023/07/29 12:13:13;;;;;;;1.20;1.20;;;;;;;;;;5051302;28;20049;-79
2023/07/29 12:15:40;;;;;;;1.75;1.65;;;;;;;;;;5048390;28;20445;-78
2023/07/29 12:18:08;;;;;;;1.40;1.30;;;;;;;;;;5031864;28;20056;-77
2023/07/29 12:20:37;;;;;;;1.33;1.30;;;;;;;;;;5047284;28;20045;-79
2023/07/29 12:23:08;;;;;;;1.15;1.15;;;;;;;;;;5052324;28;20079;-78
2023/07/29 12:25:37;;;;;;;1.38;1.30;;;;;;;;;;5050444;28;20124;-79
2023/07/29 12:28:10;;;;;;;1.38;1.30;;;;;;;;;;5051679;28;20059;-78
2023/07/29 12:30:43;;;;;;;1.88;1.50;;;;;;;;;;5027220;28;20727;-79
2023/07/29 12:33:11;;;;;;;1.30;1.20;;;;;;;;;;5045978;28;20068;-78
2023/07/29 12:35:38;;;;;;;1.40;1.40;;;;;;;;;;5042737;28;20128;-78
2023/07/29 12:38:06;;;;;;;1.50;1.40;;;;;;;;;;5047828;28;20503;-79
2023/07/29 12:40:38;;;;;;;1.55;1.45;;;;;;;;;;5046661;28;20055;-78
2023/07/29 12:43:06;;;;;;;1.50;1.40;;;;;;;;;;5046426;28;20053;-80
2023/07/29 12:45:39;;;;;;;8.65;1.83;;;;;;;;;;5047121;28;20127;-78
2023/07/29 12:48:08;;;;;;;3.00;1.50;;;;;;;;;;5050999;28;20121;-78
2023/07/29 12:50:37;;;;;;;1.80;1.70;;;;;;;;;;5049387;28;20566;-79
2023/07/29 12:53:07;;;;;;;12.35;2.10;;;;;;;;;;5053799;28;20627;-79
2023/07/29 12:55:35;;;;;;;2.40;1.87;;;;;;;;;;5048481;28;20084;-78
2023/07/29 12:58:03;;;;;;;6.28;2.10;;;;;;;;;;5033124;28;20102;-78
2023/07/29 13:00:31;;;;;;;4.07;2.45;;;;;;;;;;5046846;28;20136;-78
2023/07/29 13:02:58;;;;;;;3.63;1.90;;;;;;;;;;5048806;28;20041;-78
2023/07/29 13:05:26;;;;;;;1.90;1.80;;;;;;;;;;5050436;28;20396;-77
2023/07/29 13:07:54;;;;;;;2.63;1.85;;;;;;;;;;5048664;28;20079;-78
2023/07/29 13:10:21;;;;;;;26.83;2.30;;;;;;;;;;5050613;28;20059;-78
2023/07/29 13:12:48;;;;;;;7.00;1.98;;;;;;;;;;5048684;28;20090;-79
2023/07/29 13:15:16;;;;;;;2.38;1.40;;;;;;;;;;5051281;28;20586;-79
2023/07/29 13:17:47;;;;;;;1.73;1.63;;;;;;;;;;5051011;28;20699;-78
2023/07/29 13:20:14;;;;;;;2.40;1.80;;;;;;;;;;5052488;28;20057;-78
2023/07/29 13:22:42;;;;;;;1.85;1.75;;;;;;;;;;5052220;28;20085;-78
2023/07/29 13:25:11;;;;;;;2.30;1.60;;;;;;;;;;5031042;28;20051;-78
2023/07/29 13:27:39;;;;;;;2.60;2.40;;;;;;;;;;5048587;28;20048;-78
2023/07/29 13:30:07;;;;;;;2.45;2.25;;;;;;;;;;5033577;28;20047;-77
2023/07/29 13:32:34;;;;;;;2.95;2.13;;;;;;;;;;5051559;28;20052;-78
2023/07/29 13:35:02;;;;;;;1.90;1.80;;;;;;;;;;5034159;28;20045;-77
2023/07/29 13:37:29;;;;;;;2.00;1.90;;;;;;;;;;5052633;28;20063;-79
2023/07/29 13:39:56;;;;;;;1.50;1.40;;;;;;;;;;5014551;28;20060;-77
2023/07/29 13:42:24;;;;;;;2.22;1.90;;;;;;;;;;5020156;28;20053;-77
2023/07/29 13:44:52;;;;;;;2.45;1.88;;;;;;;;;;5051187;28;20052;-78
2023/07/29 13:47:19;;;;;;;1.67;1.63;;;;;;;;;;5032490;28;20037;-78
2023/07/29 13:49:47;;;;;;;1.90;1.80;;;;;;;;;;5047924;28;20052;-79
2023/07/29 13:52:15;;;;;;;1.60;1.50;;;;;;;;;;5051683;28;20090;-78
2023/07/29 13:54:42;;;;;;;1.38;1.27;;;;;;;;;;5050855;28;20562;-79
2023/07/29 13:57:10;;;;;;;2.42;1.40;;;;;;;;;;5049223;28;20052;-78
2023/07/29 13:59:38;;;;;;;1.60;1.50;;;;;;;;;;5044846;28;20788;-79
2023/07/29 14:02:05;;;;;;;1.50;1.40;;;;;;;;;;5028315;28;20130;-79
2023/07/29 14:04:33;;;;;;;1.60;1.30;;;;;;;;;;5036786;28;20328;-78
2023/07/29 14:07:00;;;;;;;1.38;1.38;;;;;;;;;;5034634;28;20048;-78
2023/07/29 14:09:28;;;;;;;1.30;1.20;;;;;;;;;;5038799;28;20457;-79
2023/07/29 14:11:56;;;;;;;0.98;0.98;;;;;;;;;;5032185;28;20124;-79
2023/07/29 14:14:23;;;;;;;2.47;1.20;;;;;;;;;;5030431;28;20080;-78
2023/07/29 14:16:51;;;;;;;1.27;1.20;;;;;;;;;;5043212;28;20504;-77
2023/07/29 14:19:18;;;;;;;1.10;1.10;;;;;;;;;;5039032;28;20053;-77
2023/07/29 14:21:46;;;;;;;2.05;1.10;;;;;;;;;;5030953;28;20640;-76
2023/07/29 14:24:13;;;;;;;1.00;1.00;;;;;;;;;;5032543;28;20522;-79
2023/07/29 14:26:40;;;;;;;1.33;1.30;;;;;;;;;;5033536;28;20058;-78
2023/07/29 14:29:08;;;;;;;0.93;0.93;;;;;;;;;;5026028;28;20108;-77
2023/07/29 14:31:35;;;;;;;0.77;0.77;;;;;;;;;;5038141;28;20045;-77
2023/07/29 14:34:03;;;;;;;0.90;0.90;;;;;;;;;;5033167;28;20041;-78
2023/07/29 14:36:32;;;;;;;1.10;1.00;;;;;;;;;;5039261;28;20037;-77
2023/07/29 14:38:59;;;;;;;1.35;1.20;;;;;;;;;;5037765;28;20068;-77
2023/07/29 14:41:27;;;;;;;1.00;1.00;;;;;;;;;;5038233;28;20384;-78
2023/07/29 14:43:54;;;;;;;1.17;1.02;;;;;;;;;;5036243;28;20083;-78
2023/07/29 14:46:22;;;;;;;1.48;1.27;;;;;;;;;;5034929;28;20171;-78
2023/07/29 14:48:49;;;;;;;1.10;1.10;;;;;;;;;;5037500;28;20049;-79
2023/07/29 14:51:17;;;;;;;0.80;0.80;;;;;;;;;;5044203;28;20045;-78